Time;durP1;ratioP1;P1;durP2;ratioP2;P2;SDS_P1;SDS_P2;PMS_P1;PMS_P2;Temp;Humidity;BMP_temperature;BMP_pressure;BME280_temperature;BME280_humidity;BME280_pressure;Samples;Min_cycle;Max_cycle;Signal;HPM_P1;HPM_P2
2024/01/12 00:01:29;;;;;;;15.23;10.07;;;;;;;-3.35;53.71;94982.25;5046785;28;20491;-83
2024/01/12 00:03:54;;;;;;;18.10;10.88;;;;;;;-3.30;53.27;94996.22;5046120;28;20036;-83
2024/01/12 00:06:20;;;;;;;15.18;9.48;;;;;;;-3.27;53.50;94992.06;5047155;28;20029;-83
2024/01/12 00:08:45;;;;;;;18.88;10.52;;;;;;;-3.24;53.33;94996.75;5046141;28;20033;-83
2024/01/12 00:11:11;;;;;;;15.80;9.38;;;;;;;-3.21;53.16;94988.78;5045588;28;20036;-83
2024/01/12 00:13:38;;;;;;;15.82;9.98;;;;;;;-3.22;53.19;94991.81;5046496;28;20162;-83
2024/01/12 00:16:07;;;;;;;14.88;9.48;;;;;;;-3.30;53.62;94996.22;5008684;28;1104126;-83
2024/01/12 00:18:33;;;;;;;18.40;11.25;;;;;;;-3.35;54.10;95001.09;5047570;28;20041;-83
2024/01/12 00:20:58;;;;;;;20.13;12.07;;;;;;;-3.35;54.48;95003.78;5047273;28;20028;-83
2024/01/12 00:23:23;;;;;;;20.77;11.85;;;;;;;-3.33;54.33;95006.88;5047721;28;20492;-83
2024/01/12 00:25:49;;;;;;;19.95;12.13;;;;;;;-3.36;54.16;95008.38;5046678;28;20033;-83
2024/01/12 00:28:14;;;;;;;20.98;12.15;;;;;;;-3.36;54.21;95005.69;5047749;28;20033;-83
2024/01/12 00:30:39;;;;;;;19.35;12.07;;;;;;;-3.30;53.82;95006.22;5046830;28;20079;-83
2024/01/12 00:33:06;;;;;;;15.43;9.68;;;;;;;-3.32;53.63;95003.88;5047860;28;20132;-82
2024/01/12 00:35:31;;;;;;;15.15;10.48;;;;;;;-3.34;53.44;95014.16;5047102;28;20021;-83
2024/01/12 00:37:57;;;;;;;19.65;10.07;;;;;;;-3.34;53.39;95008.78;5046985;28;20403;-83
2024/01/12 00:40:23;;;;;;;19.05;10.27;;;;;;;-3.30;53.17;95006.22;5047109;28;20036;-82
2024/01/12 00:42:50;;;;;;;19.48;10.48;;;;;;;-3.33;53.33;95001.50;5046341;28;20471;-82
2024/01/12 00:45:16;;;;;;;19.35;11.00;;;;;;;-3.39;53.34;95002.91;5045538;28;20029;-82
2024/01/12 00:47:42;;;;;;;19.42;10.07;;;;;;;-3.41;53.60;95005.16;5044662;28;20033;-83
2024/01/12 00:50:08;;;;;;;17.77;11.07;;;;;;;-3.41;53.58;95005.16;5047203;28;20029;-82
2024/01/12 00:52:33;;;;;;;19.80;12.55;;;;;;;-3.37;53.45;94995.28;5046563;28;20041;-83
2024/01/12 00:54:59;;;;;;;19.65;10.60;;;;;;;-3.36;53.23;94991.47;5047000;28;20100;-83
2024/01/12 00:57:25;;;;;;;17.77;10.45;;;;;;;-3.44;53.06;94990.50;5046802;28;20059;-82
2024/01/12 00:59:50;;;;;;;15.10;9.10;;;;;;;-3.33;52.91;94996.91;5046280;28;20028;-83
2024/01/12 01:02:16;;;;;;;20.48;10.60;;;;;;;-3.29;52.56;94991.63;5046842;28;20036;-83
2024/01/12 01:04:41;;;;;;;20.83;10.00;;;;;;;-3.37;52.42;94993.38;5044817;28;20029;-83
2024/01/12 01:07:07;;;;;;;20.20;10.27;;;;;;;-3.30;52.43;94995.44;5046507;28;20033;-83
2024/01/12 01:09:32;;;;;;;14.38;9.35;;;;;;;-3.31;52.24;94994.69;5046236;28;20028;-82
2024/01/12 01:11:57;;;;;;;19.40;9.40;;;;;;;-3.29;51.98;94986.25;5046685;28;20024;-82
2024/01/12 01:14:24;;;;;;;18.10;10.90;;;;;;;-3.37;51.73;94982.63;5046491;28;20425;-83
2024/01/12 01:16:51;;;;;;;18.30;10.27;;;;;;;-3.46;52.10;94998.13;5045988;28;20179;-83
2024/01/12 01:19:17;;;;;;;18.30;10.02;;;;;;;-3.51;51.69;94974.97;5046808;28;20044;-83
2024/01/12 01:21:42;;;;;;;16.35;10.30;;;;;;;-3.44;51.24;94973.59;5045894;28;20025;-82
2024/01/12 01:24:08;;;;;;;14.77;9.48;;;;;;;-3.41;51.02;94973.69;5046081;28;20029;-82
2024/01/12 01:26:33;;;;;;;14.23;9.02;;;;;;;-3.32;50.50;94970.84;5045623;28;20036;-82
2024/01/12 01:28:59;;;;;;;15.38;8.32;;;;;;;-3.29;50.38;94968.22;5046601;28;20017;-82
2024/01/12 01:31:25;;;;;;;18.88;8.85;;;;;;;-3.31;50.42;94969.69;5046101;28;20031;-83
2024/01/12 01:33:50;;;;;;;14.60;9.65;;;;;;;-3.35;50.60;94960.75;5046272;28;20458;-83
2024/01/12 01:36:15;;;;;;;21.85;10.18;;;;;;;-3.40;50.91;94963.69;5046110;28;20538;-83
2024/01/12 01:38:41;;;;;;;13.52;8.88;;;;;;;-3.44;51.46;94957.44;5045834;28;20040;-82
2024/01/12 01:41:07;;;;;;;17.42;9.70;;;;;;;-3.49;51.41;94961.97;5045925;28;20525;-82
2024/01/12 01:43:33;;;;;;;13.43;8.93;;;;;;;-3.49;51.31;94961.19;5045515;28;20086;-83
2024/01/12 01:45:59;;;;;;;17.38;9.90;;;;;;;-3.49;51.22;94961.19;5045999;28;20051;-83
2024/01/12 01:48:25;;;;;;;17.13;9.90;;;;;;;-3.51;51.72;94950.78;5044040;28;20036;-82
2024/01/12 01:50:51;;;;;;;20.27;9.43;;;;;;;-3.49;51.40;94942.38;5046134;28;20040;-83
2024/01/12 01:53:16;;;;;;;19.25;8.95;;;;;;;-3.60;51.65;94935.97;5044633;28;20029;-82
2024/01/12 01:55:42;;;;;;;15.05;9.52;;;;;;;-3.57;51.85;94936.03;5044645;28;20072;-82
2024/01/12 01:58:08;;;;;;;15.93;9.68;;;;;;;-3.56;51.85;94928.75;5045771;28;20025;-83
2024/01/12 02:00:34;;;;;;;17.55;10.55;;;;;;;-3.60;52.20;94927.91;5044059;28;20411;-81
2024/01/12 02:03:02;;;;;;;17.25;9.95;;;;;;;-3.52;51.85;94926.94;5046040;28;20154;-82
2024/01/12 02:05:30;;;;;;;15.85;9.30;;;;;;;-3.58;51.89;94921.03;5045418;28;20039;-81
2024/01/12 02:07:56;;;;;;;16.02;10.27;;;;;;;-3.48;51.68;94915.16;5044664;28;20036;-82
2024/01/12 02:10:22;;;;;;;17.48;9.23;;;;;;;-3.43;51.49;94911.44;5045573;28;20029;-81
2024/01/12 02:12:47;;;;;;;16.40;9.45;;;;;;;-3.48;51.33;94917.84;5046133;28;20092;-81
2024/01/12 02:15:13;;;;;;;14.10;9.00;;;;;;;-3.45;50.77;94915.56;5045263;28;20498;-82
2024/01/12 02:17:38;;;;;;;14.00;10.02;;;;;;;-3.44;50.86;94922.50;5045110;28;20488;-81
2024/01/12 02:20:04;;;;;;;19.10;10.32;;;;;;;-3.49;50.53;94932.41;5045465;28;20025;-82
2024/01/12 02:22:30;;;;;;;16.00;9.00;;;;;;;-3.38;50.39;94930.00;5045048;28;20021;-81
2024/01/12 02:24:56;;;;;;;13.80;9.05;;;;;;;-3.37;50.07;94920.78;5045649;28;20025;-82
2024/01/12 02:27:21;;;;;;;16.75;8.85;;;;;;;-3.40;50.05;94920.69;5043557;28;20029;-81
2024/01/12 02:29:48;;;;;;;13.15;8.80;;;;;;;-3.51;49.84;94905.09;5044584;28;20351;-81
2024/01/12 02:32:14;;;;;;;14.98;8.63;;;;;;;-3.49;49.82;94916.28;5045168;28;20021;-82
2024/01/12 02:34:39;;;;;;;15.95;8.32;;;;;;;-3.40;50.05;94918.00;5045367;28;20083;-81
2024/01/12 02:37:04;;;;;;;14.88;9.68;;;;;;;-3.43;50.45;94921.41;5045429;28;20021;-81
2024/01/12 02:39:30;;;;;;;15.80;9.45;;;;;;;-3.69;50.18;94893.13;5045192;28;20112;-81
2024/01/12 02:41:57;;;;;;;21.73;10.00;;;;;;;-3.38;50.55;94924.63;5045324;28;20040;-82
2024/01/12 02:44:26;;;;;;;17.90;9.35;;;;;;;-3.39;50.44;94923.03;5045136;28;20035;-81
2024/01/12 02:46:51;;;;;;;15.70;8.10;;;;;;;-3.36;50.51;94930.41;5045863;28;20084;-83
2024/01/12 02:49:17;;;;;;;18.20;9.85;;;;;;;-3.37;50.65;94934.22;5044904;28;20060;-83
2024/01/12 02:51:42;;;;;;;15.75;8.57;;;;;;;-3.38;50.57;94929.19;5045490;28;20025;-83
2024/01/12 02:54:08;;;;;;;19.50;9.88;;;;;;;-3.40;50.24;94937.59;5045152;28;20021;-83
2024/01/12 02:56:34;;;;;;;16.75;9.65;;;;;;;-3.35;50.29;94931.97;5044737;28;20052;-83
2024/01/12 02:58:59;;;;;;;21.15;10.15;;;;;;;-3.41;50.18;94922.59;5045222;28;20052;-83
2024/01/12 03:01:25;;;;;;;13.85;8.65;;;;;;;-3.35;50.48;94933.88;5044882;28;20025;-83
2024/01/12 03:03:50;;;;;;;15.60;9.98;;;;;;;-3.39;50.40;94943.75;5045682;28;20425;-83
2024/01/12 03:06:15;;;;;;;14.82;9.18;;;;;;;-3.40;50.37;94939.50;5044755;28;20039;-83
2024/01/12 03:08:41;;;;;;;14.65;8.70;;;;;;;-3.41;50.35;94938.72;5045471;28;20056;-83
2024/01/12 03:11:06;;;;;;;12.55;8.15;;;;;;;-3.40;50.27;94937.59;5048524;28;20033;-83
2024/01/12 03:13:33;;;;;;;17.58;9.23;;;;;;;-3.48;50.23;94930.50;5048568;28;20032;-83
2024/01/12 03:15:59;;;;;;;18.23;9.98;;;;;;;-3.48;50.28;94920.53;5048532;28;20064;-83
2024/01/12 03:18:24;;;;;;;13.73;8.65;;;;;;;-3.47;50.22;94937.44;5048721;28;20484;-81
2024/01/12 03:20:50;;;;;;;13.15;8.55;;;;;;;-3.47;50.55;94938.22;5048794;28;20109;-81
2024/01/12 03:23:15;;;;;;;13.43;8.38;;;;;;;-3.51;50.28;94921.22;5047826;28;20029;-82
2024/01/12 03:25:40;;;;;;;13.60;9.25;;;;;;;-3.44;50.22;94930.56;5047936;28;20028;-81
2024/01/12 03:28:08;;;;;;;16.88;9.27;;;;;;;-3.50;50.48;94932.75;5048122;28;20677;-83
2024/01/12 03:30:34;;;;;;;18.77;9.00;;;;;;;-3.47;50.60;94924.00;5048682;28;20400;-81
2024/01/12 03:32:59;;;;;;;17.52;9.77;;;;;;;-3.54;50.69;94931.91;5048614;28;20386;-81
2024/01/12 03:35:25;;;;;;;15.45;9.30;;;;;;;-3.47;50.69;94930.16;5048219;28;20017;-83
2024/01/12 03:37:50;;;;;;;19.20;10.35;;;;;;;-3.44;50.60;94925.19;5048627;28;20402;-83
2024/01/12 03:40:15;;;;;;;16.48;10.13;;;;;;;-3.37;50.30;94918.09;5047580;28;20029;-83
2024/01/12 03:42:41;;;;;;;18.05;9.63;;;;;;;-3.32;50.40;94919.75;5048885;28;20029;-83
2024/01/12 03:45:07;;;;;;;17.27;9.07;;;;;;;-3.29;50.23;94910.97;5047562;28;20028;-81
2024/01/12 03:47:32;;;;;;;19.63;9.95;;;;;;;-3.32;50.14;94917.84;5048263;28;20047;-82
2024/01/12 03:49:58;;;;;;;16.42;9.77;;;;;;;-3.32;50.03;94914.38;5047991;28;20025;-82
2024/01/12 03:52:23;;;;;;;17.08;10.15;;;;;;;-3.44;49.91;94898.31;5048110;28;20407;-82
2024/01/12 03:54:48;;;;;;;18.70;10.68;;;;;;;-3.33;50.23;94910.88;5048138;28;20032;-82
2024/01/12 03:57:14;;;;;;;17.20;9.88;;;;;;;-3.38;50.31;94900.41;5047253;28;20055;-82
2024/01/12 03:59:40;;;;;;;17.13;9.50;;;;;;;-3.32;50.43;94903.63;5048777;28;20032;-82
2024/01/12 04:02:06;;;;;;;15.18;8.93;;;;;;;-3.25;50.39;94898.41;5047360;28;20060;-82
2024/01/12 04:04:31;;;;;;;16.83;10.20;;;;;;;-3.32;51.01;94895.56;5048304;28;20108;-83
2024/01/12 04:06:57;;;;;;;23.90;11.95;;;;;;;-3.33;51.46;94907.41;5047372;28;20025;-83
2024/01/12 04:09:22;;;;;;;20.92;11.38;;;;;;;-3.28;51.18;94916.00;5048124;28;20029;-83
2024/01/12 04:11:47;;;;;;;18.77;10.13;;;;;;;-3.31;51.36;94924.78;5048054;28;20056;-83
2024/01/12 04:14:13;;;;;;;17.42;10.65;;;;;;;-3.26;51.58;94912.97;5047045;28;20080;-82
2024/01/12 04:16:38;;;;;;;18.30;10.68;;;;;;;-3.25;51.73;94906.47;5047575;28;20052;-83
2024/01/12 04:19:04;;;;;;;20.52;11.45;;;;;;;-3.26;51.70;94905.69;5046948;28;20479;-83
2024/01/12 04:21:29;;;;;;;18.35;11.32;;;;;;;-3.30;52.01;94906.72;5046959;28;20017;-82
2024/01/12 04:23:55;;;;;;;20.20;10.38;;;;;;;-3.20;51.52;94911.59;5047023;28;20139;-82
2024/01/12 04:26:20;;;;;;;18.67;9.32;;;;;;;-3.29;51.38;94906.38;5047555;28;20044;-83
2024/01/12 04:28:46;;;;;;;17.35;10.07;;;;;;;-3.19;50.63;94910.44;5047228;28;20385;-82
2024/01/12 04:31:11;;;;;;;15.38;9.63;;;;;;;-3.18;50.84;94909.31;5045784;28;20614;-81
2024/01/12 04:33:37;;;;;;;17.70;10.15;;;;;;;-3.17;50.64;94913.56;5047789;28;20032;-81
2024/01/12 04:36:02;;;;;;;20.13;10.75;;;;;;;-3.12;50.51;94905.22;5046788;28;20036;-81
2024/01/12 04:38:28;;;;;;;17.88;10.50;;;;;;;-3.14;50.99;94914.78;5046025;28;20491;-82
2024/01/12 04:40:54;;;;;;;18.88;10.23;;;;;;;-3.09;50.64;94914.53;5046644;28;20534;-82
2024/01/12 04:43:19;;;;;;;17.58;10.55;;;;;;;-3.06;51.03;94917.28;5048171;28;20024;-81
2024/01/12 04:45:45;;;;;;;17.77;10.82;;;;;;;-3.10;51.26;94916.41;5047419;28;20033;-82
2024/01/12 04:48:10;;;;;;;16.38;10.13;;;;;;;-3.10;51.62;94912.94;5047103;28;20116;-84
2024/01/12 04:50:35;;;;;;;17.27;9.45;;;;;;;-3.10;51.62;94919.09;5046958;28;20341;-83
2024/01/12 04:53:01;;;;;;;21.20;11.77;;;;;;;-3.08;51.31;94916.84;5046349;28;20025;-84
2024/01/12 04:55:27;;;;;;;17.95;10.38;;;;;;;-3.10;51.93;94924.47;5047110;28;20033;-82
2024/01/12 04:57:52;;;;;;;22.50;12.05;;;;;;;-3.16;51.65;94920.50;5046279;28;20037;-82
2024/01/12 05:00:18;;;;;;;20.52;10.40;;;;;;;-3.31;52.20;94924.00;5046953;28;20952;-82
2024/01/12 05:02:44;;;;;;;21.25;12.13;;;;;;;-3.35;52.56;94933.88;5046466;28;20094;-83
2024/01/12 05:05:09;;;;;;;20.35;11.98;;;;;;;-3.29;51.57;94940.56;5047314;28;20037;-82
2024/01/12 05:07:34;;;;;;;21.15;12.20;;;;;;;-3.45;51.87;94937.09;5046399;28;20060;-83
2024/01/12 05:10:00;;;;;;;16.90;10.05;;;;;;;-3.35;52.01;94939.25;5046664;28;20039;-82
2024/01/12 05:12:26;;;;;;;18.17;11.18;;;;;;;-3.36;52.04;94953.81;5046681;28;20029;-82
2024/01/12 05:14:51;;;;;;;18.05;10.63;;;;;;;-3.36;52.24;94938.47;5046019;28;20037;-82
2024/01/12 05:17:17;;;;;;;18.30;10.75;;;;;;;-3.32;51.85;94941.25;5046334;28;20561;-82
2024/01/12 05:19:43;;;;;;;17.67;11.02;;;;;;;-3.38;52.08;94945.31;5046042;28;20017;-82
2024/01/12 05:22:08;;;;;;;19.92;11.85;;;;;;;-3.35;51.50;94941.94;5046878;28;20051;-82
2024/01/12 05:24:33;;;;;;;20.55;10.93;;;;;;;-3.32;51.27;94960.06;5045864;28;20036;-82
2024/01/12 05:26:59;;;;;;;17.42;9.88;;;;;;;-3.35;51.14;94952.69;5046509;28;20072;-82
2024/01/12 05:29:24;;;;;;;18.45;9.27;;;;;;;-3.37;51.15;94957.66;5044709;28;20025;-82
2024/01/12 05:31:50;;;;;;;16.60;10.82;;;;;;;-3.42;50.94;94971.34;5045723;28;20025;-83
2024/01/12 05:34:15;;;;;;;21.42;11.07;;;;;;;-3.52;51.00;94976.09;5046101;28;20107;-82
2024/01/12 05:36:40;;;;;;;21.63;10.43;;;;;;;-3.50;50.84;94973.06;5045706;28;20112;-82
2024/01/12 05:39:06;;;;;;;16.35;9.77;;;;;;;-3.55;50.67;94974.13;5046142;28;20399;-83
2024/01/12 05:41:32;;;;;;;15.02;10.48;;;;;;;-3.54;50.58;94975.66;5045713;28;20086;-82
2024/01/12 05:43:57;;;;;;;22.02;10.82;;;;;;;-3.57;50.44;94965.59;5046589;28;20505;-79
2024/01/12 05:46:23;;;;;;;19.65;9.95;;;;;;;-3.62;50.84;94978.50;5045519;28;20021;-83
2024/01/12 05:48:48;;;;;;;18.30;10.30;;;;;;;-3.69;51.03;94962.22;5047232;28;20040;-80
2024/01/12 05:51:15;;;;;;;21.90;11.77;;;;;;;-3.72;51.23;94958.31;5046444;28;20029;-84
2024/01/12 05:53:40;;;;;;;20.30;11.43;;;;;;;-3.70;51.39;94961.44;5045761;28;20033;-84
2024/01/12 05:56:05;;;;;;;19.25;10.95;;;;;;;-3.65;51.22;94955.03;5045978;28;20509;-87
2024/01/12 05:58:31;;;;;;;19.98;10.85;;;;;;;-3.68;51.00;94951.13;5045179;28;20079;-86
2024/01/12 06:00:56;;;;;;;19.92;10.98;;;;;;;-3.72;50.92;94954.84;5046396;28;20039;-85
2024/01/12 06:03:22;;;;;;;19.10;10.15;;;;;;;-3.66;50.78;94961.53;5045254;28;20060;-86
2024/01/12 06:05:50;;;;;;;18.95;10.35;;;;;;;-3.70;50.79;94961.44;5046021;28;20036;-86
2024/01/12 06:08:15;;;;;;;20.88;10.90;;;;;;;-3.74;50.67;94963.25;5045272;28;20472;-86
2024/01/12 06:10:41;;;;;;;22.33;10.60;;;;;;;-3.75;50.62;94975.13;5045368;28;20029;-86
2024/01/12 06:13:06;;;;;;;16.42;10.02;;;;;;;-3.72;50.34;94965.59;5045605;28;20115;-84
2024/01/12 06:15:31;;;;;;;19.88;11.18;;;;;;;-3.78;50.45;94951.63;5045080;28;20049;-86
2024/01/12 06:18:00;;;;;;;19.10;9.45;;;;;;;-3.81;50.27;94968.44;5045263;28;20080;-86
2024/01/12 06:20:26;;;;;;;15.63;9.82;;;;;;;-3.84;50.41;94972.59;5042789;28;20029;-86
2024/01/12 06:22:51;;;;;;;21.40;10.50;;;;;;;-3.88;50.60;94977.09;5044156;28;20065;-86
2024/01/12 06:25:17;;;;;;;17.63;9.70;;;;;;;-3.93;50.95;94984.63;5043109;28;20052;-86
2024/01/12 06:27:42;;;;;;;17.85;10.13;;;;;;;-3.97;51.00;94978.34;5043634;28;20036;-86
2024/01/12 06:30:08;;;;;;;20.20;10.20;;;;;;;-3.98;50.59;94982.16;5045597;28;20025;-85
2024/01/12 06:32:34;;;;;;;19.73;11.03;;;;;;;-3.96;50.98;94979.91;5047267;28;20033;-84
2024/01/12 06:34:59;;;;;;;19.45;11.20;;;;;;;-4.04;51.05;94982.41;5046406;28;20017;-86
2024/01/12 06:37:24;;;;;;;19.43;10.80;;;;;;;-4.30;51.45;94968.63;5045047;28;20024;-85
2024/01/12 06:39:50;;;;;;;25.37;10.30;;;;;;;-4.22;51.34;94993.78;5046122;28;20487;-86
2024/01/12 06:42:16;;;;;;;19.73;10.38;;;;;;;-4.16;51.44;95003.94;5045136;28;20025;-86
2024/01/12 06:44:41;;;;;;;15.77;10.13;;;;;;;-4.06;50.88;95008.84;5050572;28;20037;-87
2024/01/12 06:47:07;;;;;;;16.20;9.65;;;;;;;-3.92;50.71;95008.44;5049238;28;20035;-85
2024/01/12 06:49:33;;;;;;;19.20;9.57;;;;;;;-3.75;50.52;95007.34;5049655;28;20082;-85
2024/01/12 06:51:59;;;;;;;18.13;9.70;;;;;;;-3.63;50.31;95009.97;5048428;28;20475;-85
2024/01/12 06:54:24;;;;;;;13.63;8.88;;;;;;;-3.55;50.11;95009.06;5049112;28;20077;-85
2024/01/12 06:56:52;;;;;;;15.88;9.55;;;;;;;-3.43;49.71;95012.78;5050001;28;20041;-86
2024/01/12 06:59:18;;;;;;;16.55;8.52;;;;;;;-3.38;49.65;94999.88;5048471;28;20036;-84
2024/01/12 07:01:43;;;;;;;16.10;8.60;;;;;;;-3.37;49.84;95004.13;5049875;28;20414;-86
2024/01/12 07:04:09;;;;;;;17.88;9.45;;;;;;;-3.49;49.71;94990.78;5048841;28;20033;-85
2024/01/12 07:06:34;;;;;;;14.68;8.80;;;;;;;-3.47;50.29;95007.31;5049209;28;20024;-85
2024/01/12 07:08:59;;;;;;;18.13;10.20;;;;;;;-3.49;50.51;95004.97;5049290;28;20579;-84
2024/01/12 07:11:25;;;;;;;15.02;8.43;;;;;;;-3.47;50.44;95004.63;5048516;28;20033;-84
2024/01/12 07:13:50;;;;;;;21.35;9.70;;;;;;;-3.46;50.87;95003.50;5049459;28;20594;-86
2024/01/12 07:16:16;;;;;;;18.40;9.27;;;;;;;-3.49;50.86;95013.03;5047968;28;20139;-85
2024/01/12 07:18:42;;;;;;;15.82;9.05;;;;;;;-3.54;50.90;95010.59;5049619;28;20111;-85
2024/01/12 07:21:08;;;;;;;12.32;6.95;;;;;;;-3.53;50.93;95009.47;5048232;28;20029;-85
2024/01/12 07:23:33;;;;;;;16.90;9.13;;;;;;;-3.50;51.17;95013.38;5049244;28;20447;-85
2024/01/12 07:25:59;;;;;;;18.50;9.05;;;;;;;-3.43;50.71;95013.56;5048480;28;20033;-85
2024/01/12 07:28:25;;;;;;;18.77;8.90;;;;;;;-3.38;50.73;95007.13;5048268;28;20029;-85
2024/01/12 07:30:54;;;;;;;16.73;9.10;;;;;;;-3.25;50.88;95014.78;5049200;28;20060;-85
2024/01/12 07:33:20;;;;;;;22.13;10.45;;;;;;;-3.15;50.74;95018.06;5048229;28;20114;-85
2024/01/12 07:35:46;;;;;;;18.08;9.40;;;;;;;-3.04;50.36;95033.38;5048882;28;20487;-85
2024/01/12 07:38:12;;;;;;;19.63;9.93;;;;;;;-3.05;50.65;95023.72;5047665;28;20025;-83
2024/01/12 07:40:37;;;;;;;17.95;9.77;;;;;;;-2.83;50.20;95037.69;5048917;28;20029;-86
2024/01/12 07:43:03;;;;;;;22.88;9.63;;;;;;;-2.68;49.55;95034.22;5048189;28;20035;-84
2024/01/12 07:45:28;;;;;;;20.75;9.43;;;;;;;-2.48;49.48;95035.81;5048170;28;20565;-85
2024/01/12 07:47:54;;;;;;;21.88;11.07;;;;;;;-2.42;49.36;95045.19;5048438;28;20120;-83
2024/01/12 07:50:19;;;;;;;19.25;9.60;;;;;;;-2.31;49.02;95040.03;5047627;28;20376;-83
2024/01/12 07:52:45;;;;;;;26.70;11.13;;;;;;;-2.19;48.98;95058.75;5048390;28;20506;-85
2024/01/12 07:55:11;;;;;;;22.52;10.27;;;;;;;-2.10;48.64;95052.41;5047385;28;20039;-82
2024/01/12 07:57:36;;;;;;;20.75;10.40;;;;;;;-2.05;48.46;95058.28;5049277;28;20084;-83
2024/01/12 08:00:02;;;;;;;22.17;10.70;;;;;;;-1.67;47.85;95062.13;5047921;28;20040;-85
2024/01/12 08:02:28;;;;;;;22.95;11.55;;;;;;;-1.11;46.83;95064.34;5048509;28;20032;-84
2024/01/12 08:04:53;;;;;;;18.98;10.82;;;;;;;-0.10;44.81;95067.47;5048139;28;20025;-84
2024/01/12 08:07:19;;;;;;;25.52;11.48;;;;;;;1.20;42.37;95072.06;5047559;28;20057;-83
2024/01/12 08:09:44;;;;;;;21.42;9.77;;;;;;;2.31;39.97;95065.50;5048257;28;20028;-82
2024/01/12 08:12:10;;;;;;;26.63;12.65;;;;;;;3.46;37.34;95069.28;5047756;28;20063;-83
2024/01/12 08:14:35;;;;;;;22.52;12.30;;;;;;;4.46;35.72;95074.59;5048591;28;20028;-83
2024/01/12 08:17:02;;;;;;;21.25;12.18;;;;;;;5.25;34.29;95083.19;5045888;28;20044;-84
2024/01/12 08:19:27;;;;;;;22.73;12.00;;;;;;;5.37;33.39;95084.69;5048396;28;20388;-84
2024/01/12 08:21:53;;;;;;;21.15;10.95;;;;;;;5.80;32.38;95087.88;5047838;28;20054;-83
2024/01/12 08:24:18;;;;;;;22.25;12.18;;;;;;;6.63;31.51;95092.16;5047567;28;20052;-83
2024/01/12 08:26:45;;;;;;;27.10;12.93;;;;;;;7.10;30.55;95091.63;5047632;28;20052;-84
2024/01/12 08:29:11;;;;;;;22.38;13.23;;;;;;;7.65;30.06;95101.41;5046865;28;20029;-83
2024/01/12 08:31:36;;;;;;;22.25;13.90;;;;;;;8.24;29.10;95106.31;5048118;28;20362;-83
2024/01/12 08:34:01;;;;;;;20.77;12.68;;;;;;;8.63;28.21;95105.66;5047617;28;20040;-83
2024/01/12 08:36:27;;;;;;;23.20;13.60;;;;;;;9.08;27.63;95118.91;5048182;28;20052;-83
2024/01/12 08:38:52;;;;;;;21.35;13.00;;;;;;;9.32;27.50;95116.84;5047411;28;20021;-83
2024/01/12 08:41:18;;;;;;;22.75;13.63;;;;;;;9.73;27.14;95113.59;5047750;28;20291;-83
2024/01/12 08:43:43;;;;;;;23.17;12.88;;;;;;;9.75;26.86;95113.94;5047250;28;20557;-84
2024/01/12 08:46:08;;;;;;;25.67;14.20;;;;;;;9.77;26.69;95119.78;5047037;28;20457;-83
2024/01/12 08:48:35;;;;;;;24.23;14.15;;;;;;;9.76;26.75;95131.97;5047522;28;20025;-85
2024/01/12 08:51:00;;;;;;;24.17;13.27;;;;;;;10.11;26.11;95124.09;5047038;28;20108;-84
2024/01/12 08:53:26;;;;;;;20.92;13.02;;;;;;;9.65;26.35;95123.19;5047270;28;20475;-85
2024/01/12 08:55:51;;;;;;;23.17;13.73;;;;;;;9.57;26.83;95117.06;5046586;28;20029;-85
2024/01/12 08:58:17;;;;;;;25.17;15.23;;;;;;;9.34;27.04;95122.66;5047591;28;20494;-84
2024/01/12 09:00:42;;;;;;;21.40;13.07;;;;;;;9.74;26.69;95125.34;5046504;28;20065;-84
2024/01/12 09:03:08;;;;;;;23.73;13.65;;;;;;;8.90;27.74;95115.75;5047172;28;20443;-84
2024/01/12 09:05:33;;;;;;;20.95;13.75;;;;;;;9.50;26.74;95119.97;5046717;28;20410;-84
2024/01/12 09:07:59;;;;;;;25.83;13.45;;;;;;;8.88;27.21;95109.91;5045680;28;20407;-85
2024/01/12 09:10:25;;;;;;;22.83;13.65;;;;;;;7.41;29.47;95125.22;5046788;28;20104;-84
2024/01/12 09:12:50;;;;;;;22.50;13.77;;;;;;;6.93;30.28;95143.34;5046197;28;20029;-85
2024/01/12 09:15:15;;;;;;;24.40;14.13;;;;;;;6.50;31.12;95148.50;5046722;28;20056;-85
2024/01/12 09:17:41;;;;;;;25.83;14.30;;;;;;;6.18;31.96;95139.81;5045945;28;20406;-86
2024/01/12 09:20:07;;;;;;;22.60;12.30;;;;;;;5.64;32.80;95144.88;5047110;28;20044;-85
2024/01/12 09:22:33;;;;;;;25.23;14.07;;;;;;;6.54;31.86;95143.78;5045911;28;20048;-85
2024/01/12 09:24:58;;;;;;;22.60;14.05;;;;;;;8.13;29.56;95133.13;5046496;28;20032;-86
2024/01/12 09:27:23;;;;;;;23.17;14.38;;;;;;;7.69;30.02;95134.97;5046402;28;20036;-86
2024/01/12 09:29:49;;;;;;;29.27;15.82;;;;;;;8.84;28.67;95125.66;5047921;28;20013;-84
2024/01/12 09:32:15;;;;;;;26.17;15.00;;;;;;;9.62;28.03;95136.97;5046773;28;20530;-85
2024/01/12 09:34:41;;;;;;;26.80;15.50;;;;;;;9.00;27.93;95125.72;5046385;28;20558;-85
2024/01/12 09:37:06;;;;;;;24.85;14.18;;;;;;;8.76;28.17;95125.00;5045833;28;20078;-85
2024/01/12 09:39:32;;;;;;;26.38;14.73;;;;;;;8.69;28.42;95122.41;5045758;28;20514;-85
2024/01/12 09:42:02;;;;;;;26.92;15.73;;;;;;;10.03;27.16;95128.97;5046575;28;20106;-85
2024/01/12 09:44:29;;;;;;;24.98;13.73;;;;;;;10.98;25.87;95126.22;5046763;28;20020;-87
2024/01/12 09:46:56;;;;;;;27.35;15.70;;;;;;;11.52;24.96;95122.72;5045859;28;20032;-86
2024/01/12 09:49:23;;;;;;;25.15;16.05;;;;;;;12.51;23.86;95118.09;5046263;28;20025;-86
2024/01/12 09:51:49;;;;;;;28.90;15.85;;;;;;;12.06;23.94;95097.13;5044105;28;20033;-88
2024/01/12 09:54:14;;;;;;;22.98;15.25;;;;;;;11.62;24.31;95122.41;5046425;28;20025;-86
2024/01/12 09:56:40;;;;;;;25.52;14.65;;;;;;;10.90;25.16;95117.41;5045350;28;20040;-87
2024/01/12 09:59:06;;;;;;;25.40;15.15;;;;;;;11.89;24.29;95113.00;5046758;28;20025;-87
2024/01/12 10:01:32;;;;;;;27.85;16.45;;;;;;;12.61;23.44;95112.19;5045842;28;20031;-87
2024/01/12 10:03:57;;;;;;;20.30;14.90;;;;;;;13.16;22.94;95120.19;5046096;28;20099;-86
2024/01/12 10:06:23;;;;;;;26.00;16.67;;;;;;;13.40;22.59;95117.75;5047125;28;20036;-89
2024/01/12 10:08:48;;;;;;;25.98;15.43;;;;;;;14.30;21.75;95110.34;5047269;28;20067;-85
2024/01/12 10:11:14;;;;;;;26.75;15.85;;;;;;;14.81;21.53;95113.38;5048043;28;20032;-85
2024/01/12 10:13:39;;;;;;;23.70;15.32;;;;;;;14.74;20.79;95129.53;5046795;28;20040;-86
2024/01/12 10:16:07;;;;;;;21.38;14.35;;;;;;;14.24;21.51;95112.16;5046826;28;20096;-86
2024/01/12 10:18:33;;;;;;;24.60;15.18;;;;;;;13.83;21.70;95114.16;5046911;28;20438;-85
2024/01/12 10:20:59;;;;;;;24.35;15.18;;;;;;;14.84;20.90;95123.50;5050567;28;20037;-85
2024/01/12 10:23:26;;;;;;;29.83;17.75;;;;;;;15.16;20.72;95140.00;5050067;28;20484;-86
2024/01/12 10:26:03;;;;;;;26.42;15.23;;;;;;;15.35;20.23;95124.88;5049848;28;20629;-85
2024/01/12 10:28:30;;;;;;;26.83;16.38;;;;;;;15.50;20.03;95120.25;5050210;28;20021;-86
2024/01/12 10:30:55;;;;;;;23.38;15.52;;;;;;;15.00;20.20;95116.91;5048939;28;20479;-85
2024/01/12 10:33:22;;;;;;;22.85;15.18;;;;;;;15.71;19.77;95118.53;5050465;28;20074;-84
2024/01/12 10:36:06;;;;;;;25.50;15.38;;;;;;;16.13;19.48;95126.88;5049379;28;20032;-85
2024/01/12 10:38:31;;;;;;;;;;;;;;;15.55;19.73;95127.94;5049961;28;20105;-85
2024/01/12 10:40:59;;;;;;;25.13;15.98;;;;;;;15.83;19.83;95125.16;5049998;28;20009;-84
2024/01/12 10:43:26;;;;;;;25.67;15.95;;;;;;;15.72;19.67;95130.41;5048836;28;20025;-85
2024/01/12 10:45:57;;;;;;;25.02;15.70;;;;;;;16.10;19.73;95133.34;5049852;28;20025;-85
2024/01/12 10:48:24;;;;;;;23.98;15.88;;;;;;;15.05;20.20;95119.06;5048803;28;20032;-85
2024/01/12 10:50:55;;;;;;;23.10;14.57;;;;;;;15.04;20.57;95122.31;5050120;28;20176;-86
2024/01/12 10:53:23;;;;;;;25.70;15.77;;;;;;;15.30;20.26;95119.97;5048005;28;20068;-86
2024/01/12 10:55:56;;;;;;;25.35;15.35;;;;;;;14.95;20.79;95131.38;5047788;28;20025;-86
2024/01/12 10:58:21;;;;;;;24.13;15.38;;;;;;;13.89;21.72;95122.63;5049693;28;20032;-86
2024/01/12 11:00:47;;;;;;;23.55;15.65;;;;;;;13.65;21.94;95122.34;5048684;28;20029;-86
2024/01/12 11:03:16;;;;;;;23.50;14.68;;;;;;;13.26;22.21;95130.88;5050904;28;20091;-86
2024/01/12 11:05:47;;;;;;;25.85;14.82;;;;;;;13.16;22.41;95136.72;5048634;28;20021;-86
2024/01/12 11:08:13;;;;;;;26.05;15.68;;;;;;;13.34;22.46;95125.84;5049720;28;20025;-85
2024/01/12 11:10:42;;;;;;;24.80;15.63;;;;;;;13.54;22.22;95129.06;5048720;28;20035;-85
2024/01/12 11:13:13;;;;;;;28.42;15.05;;;;;;;13.50;22.27;95122.13;5047840;28;20037;-85
2024/01/12 11:15:40;;;;;;;23.85;15.80;;;;;;;13.73;22.18;95129.91;5047394;28;20036;-86